sensor_id;sensor_type;location;lat;lon;timestamp;temperature;humidity
72591;SHT31;60625;51.212;5.952;2023-07-13T00:04:22;17.99;58.08
72591;SHT31;60625;51.212;5.952;2023-07-13T00:09:25;17.95;58.31
72591;SHT31;60625;51.212;5.952;2023-07-13T00:14:26;17.90;58.74
72591;SHT31;60625;51.212;5.952;2023-07-13T00:19:28;17.85;59.17
72591;SHT31;60625;51.212;5.952;2023-07-13T00:24:29;17.81;59.39
72591;SHT31;60625;51.212;5.952;2023-07-13T00:29:30;17.77;59.56
72591;SHT31;60625;51.212;5.952;2023-07-13T00:34:30;17.71;59.84
72591;SHT31;60625;51.212;5.952;2023-07-13T00:39:32;17.65;59.89
72591;SHT31;60625;51.212;5.952;2023-07-13T00:44:33;17.61;60.03
72591;SHT31;60625;51.212;5.952;2023-07-13T00:49:34;17.58;60.38
72591;SHT31;60625;51.212;5.952;2023-07-13T00:54:38;17.52;60.99
72591;SHT31;60625;51.212;5.952;2023-07-13T00:59:45;17.45;61.35
72591;SHT31;60625;51.212;5.952;2023-07-13T01:04:51;17.39;61.58
72591;SHT31;60625;51.212;5.952;2023-07-13T01:09:51;17.36;61.67
72591;SHT31;60625;51.212;5.952;2023-07-13T01:14:56;17.31;61.82
72591;SHT31;60625;51.212;5.952;2023-07-13T01:20:01;17.27;61.97
72591;SHT31;60625;51.212;5.952;2023-07-13T01:25:01;17.23;62.35
72591;SHT31;60625;51.212;5.952;2023-07-13T01:30:03;17.17;62.78
72591;SHT31;60625;51.212;5.952;2023-07-13T01:35:05;17.10;63.27
72591;SHT31;60625;51.212;5.952;2023-07-13T01:40:06;17.05;63.38
72591;SHT31;60625;51.212;5.952;2023-07-13T01:45:09;17.03;63.74
72591;SHT31;60625;51.212;5.952;2023-07-13T01:50:10;16.99;63.98
72591;SHT31;60625;51.212;5.952;2023-07-13T01:55:10;16.93;64.56
72591;SHT31;60625;51.212;5.952;2023-07-13T02:00:13;16.85;64.86
72591;SHT31;60625;51.212;5.952;2023-07-13T02:05:17;16.81;65.19
72591;SHT31;60625;51.212;5.952;2023-07-13T02:10:18;16.75;65.54
72591;SHT31;60625;51.212;5.952;2023-07-13T02:15:18;16.69;65.88
72591;SHT31;60625;51.212;5.952;2023-07-13T02:20:19;16.67;65.97
72591;SHT31;60625;51.212;5.952;2023-07-13T02:25:20;16.61;66.36
72591;SHT31;60625;51.212;5.952;2023-07-13T02:30:21;16.56;66.75
72591;SHT31;60625;51.212;5.952;2023-07-13T02:35:28;16.50;66.92
72591;SHT31;60625;51.212;5.952;2023-07-13T02:40:28;16.48;66.94
72591;SHT31;60625;51.212;5.952;2023-07-13T02:45:28;16.44;67.47
72591;SHT31;60625;51.212;5.952;2023-07-13T02:50:29;16.37;67.86
72591;SHT31;60625;51.212;5.952;2023-07-13T02:55:30;16.31;67.82
72591;SHT31;60625;51.212;5.952;2023-07-13T03:00:30;16.30;67.85
72591;SHT31;60625;51.212;5.952;2023-07-13T03:05:31;16.28;68.30
72591;SHT31;60625;51.212;5.952;2023-07-13T03:10:32;16.25;68.44
72591;SHT31;60625;51.212;5.952;2023-07-13T03:15:33;16.24;68.58
72591;SHT31;60625;51.212;5.952;2023-07-13T03:20:34;16.21;68.78
72591;SHT31;60625;51.212;5.952;2023-07-13T03:25:35;16.18;69.14
72591;SHT31;60625;51.212;5.952;2023-07-13T03:30:36;16.17;69.37
72591;SHT31;60625;51.212;5.952;2023-07-13T03:35:40;16.16;69.65
72591;SHT31;60625;51.212;5.952;2023-07-13T03:40:42;16.14;70.00
72591;SHT31;60625;51.212;5.952;2023-07-13T03:45:42;16.12;70.15
72591;SHT31;60625;51.212;5.952;2023-07-13T03:50:44;16.11;70.21
72591;SHT31;60625;51.212;5.952;2023-07-13T03:55:45;16.08;70.61
72591;SHT31;60625;51.212;5.952;2023-07-13T04:00:45;16.07;70.61
72591;SHT31;60625;51.212;5.952;2023-07-13T04:05:46;16.08;70.83
72591;SHT31;60625;51.212;5.952;2023-07-13T04:10:46;16.08;70.79
72591;SHT31;60625;51.212;5.952;2023-07-13T04:15:47;16.09;70.91
72591;SHT31;60625;51.212;5.952;2023-07-13T04:20:48;16.13;71.00
72591;SHT31;60625;51.212;5.952;2023-07-13T04:25:51;16.21;70.86
72591;SHT31;60625;51.212;5.952;2023-07-13T04:30:53;16.29;71.00
72591;SHT31;60625;51.212;5.952;2023-07-13T04:35:55;16.38;71.06
72591;SHT31;60625;51.212;5.952;2023-07-13T04:40:58;16.46;70.99
72591;SHT31;60625;51.212;5.952;2023-07-13T04:46:05;16.53;71.04
72591;SHT31;60625;51.212;5.952;2023-07-13T04:51:12;16.58;71.01
72591;SHT31;60625;51.212;5.952;2023-07-13T04:56:13;16.64;70.97
72591;SHT31;60625;51.212;5.952;2023-07-13T05:01:14;16.70;70.85
72591;SHT31;60625;51.212;5.952;2023-07-13T05:06:14;16.78;70.82
72591;SHT31;60625;51.212;5.952;2023-07-13T05:11:15;16.87;70.73
72591;SHT31;60625;51.212;5.952;2023-07-13T05:16:15;16.89;71.04
72591;SHT31;60625;51.212;5.952;2023-07-13T05:21:16;16.90;71.13
72591;SHT31;60625;51.212;5.952;2023-07-13T05:26:18;17.02;71.11
72591;SHT31;60625;51.212;5.952;2023-07-13T05:31:20;17.25;70.96
72591;SHT31;60625;51.212;5.952;2023-07-13T05:36:21;17.42;70.69
72591;SHT31;60625;51.212;5.952;2023-07-13T05:41:21;17.48;70.49
72591;SHT31;60625;51.212;5.952;2023-07-13T05:46:22;17.52;70.47
72591;SHT31;60625;51.212;5.952;2023-07-13T05:51:22;17.50;70.39
72591;SHT31;60625;51.212;5.952;2023-07-13T05:56:23;17.57;70.25
72591;SHT31;60625;51.212;5.952;2023-07-13T06:01:25;17.58;70.10
72591;SHT31;60625;51.212;5.952;2023-07-13T06:06:26;17.64;69.94
72591;SHT31;60625;51.212;5.952;2023-07-13T06:11:27;17.78;69.64
72591;SHT31;60625;51.212;5.952;2023-07-13T06:16:30;17.80;69.65
72591;SHT31;60625;51.212;5.952;2023-07-13T06:21:30;17.99;69.32
72591;SHT31;60625;51.212;5.952;2023-07-13T06:26:31;18.18;68.74
72591;SHT31;60625;51.212;5.952;2023-07-13T06:31:32;18.24;68.53
72591;SHT31;60625;51.212;5.952;2023-07-13T06:36:35;18.37;68.36
72591;SHT31;60625;51.212;5.952;2023-07-13T06:41:36;18.51;68.18
72591;SHT31;60625;51.212;5.952;2023-07-13T06:46:44;18.57;67.93
72591;SHT31;60625;51.212;5.952;2023-07-13T06:51:45;18.60;67.92
72591;SHT31;60625;51.212;5.952;2023-07-13T06:56:46;18.68;67.79
72591;SHT31;60625;51.212;5.952;2023-07-13T07:01:46;18.73;67.69
72591;SHT31;60625;51.212;5.952;2023-07-13T07:06:47;18.82;67.66
72591;SHT31;60625;51.212;5.952;2023-07-13T07:11:47;18.86;67.63
72591;SHT31;60625;51.212;5.952;2023-07-13T07:16:48;18.85;67.53
72591;SHT31;60625;51.212;5.952;2023-07-13T07:21:48;18.82;67.72
72591;SHT31;60625;51.212;5.952;2023-07-13T07:26:49;18.86;67.90
72591;SHT31;60625;51.212;5.952;2023-07-13T07:31:49;18.91;67.74
72591;SHT31;60625;51.212;5.952;2023-07-13T07:36:49;18.94;67.65
72591;SHT31;60625;51.212;5.952;2023-07-13T07:41:50;18.96;67.69
72591;SHT31;60625;51.212;5.952;2023-07-13T07:46:50;19.08;67.51
72591;SHT31;60625;51.212;5.952;2023-07-13T07:51:51;19.25;67.17
72591;SHT31;60625;51.212;5.952;2023-07-13T07:56:52;19.49;66.75
72591;SHT31;60625;51.212;5.952;2023-07-13T08:01:52;19.60;66.25
72591;SHT31;60625;51.212;5.952;2023-07-13T08:06:53;19.67;65.99
72591;SHT31;60625;51.212;5.952;2023-07-13T08:11:56;19.82;65.56
72591;SHT31;60625;51.212;5.952;2023-07-13T08:16:56;20.01;65.10
72591;SHT31;60625;51.212;5.952;2023-07-13T08:21:57;20.21;64.73
72591;SHT31;60625;51.212;5.952;2023-07-13T08:26:58;20.41;64.12
72591;SHT31;60625;51.212;5.952;2023-07-13T08:31:59;20.53;63.46
72591;SHT31;60625;51.212;5.952;2023-07-13T08:37:01;20.75;62.95
72591;SHT31;60625;51.212;5.952;2023-07-13T08:42:05;20.98;62.22
72591;SHT31;60625;51.212;5.952;2023-07-13T08:47:14;21.28;61.65
72591;SHT31;60625;51.212;5.952;2023-07-13T08:57:48;21.69;60.82
72591;SHT31;60625;51.212;5.952;2023-07-13T09:02:57;21.99;59.53
72591;SHT31;60625;51.212;5.952;2023-07-13T09:13:51;22.11;58.15
72591;SHT31;60625;51.212;5.952;2023-07-13T09:19:04;22.08;58.17
72591;SHT31;60625;51.212;5.952;2023-07-13T09:24:22;22.06;57.83
72591;SHT31;60625;51.212;5.952;2023-07-13T09:29:38;22.11;58.09
72591;SHT31;60625;51.212;5.952;2023-07-13T09:35:11;22.42;57.85
72591;SHT31;60625;51.212;5.952;2023-07-13T09:40:22;22.54;56.92
72591;SHT31;60625;51.212;5.952;2023-07-13T09:45:32;22.64;56.01
72591;SHT31;60625;51.212;5.952;2023-07-13T09:50:34;22.74;55.67
72591;SHT31;60625;51.212;5.952;2023-07-13T09:55:36;22.92;54.87
72591;SHT31;60625;51.212;5.952;2023-07-13T10:00:39;23.09;54.69
72591;SHT31;60625;51.212;5.952;2023-07-13T10:05:41;23.17;54.72
72591;SHT31;60625;51.212;5.952;2023-07-13T10:10:45;23.36;54.41
72591;SHT31;60625;51.212;5.952;2023-07-13T10:15:54;23.70;53.72
72591;SHT31;60625;51.212;5.952;2023-07-13T10:21:19;24.10;52.88
72591;SHT31;60625;51.212;5.952;2023-07-13T10:26:26;24.32;52.24
72591;SHT31;60625;51.212;5.952;2023-07-13T10:31:32;24.59;52.24
72591;SHT31;60625;51.212;5.952;2023-07-13T10:36:53;24.79;51.56
72591;SHT31;60625;51.212;5.952;2023-07-13T10:41:55;24.80;50.56
72591;SHT31;60625;51.212;5.952;2023-07-13T10:47:02;24.79;50.27
72591;SHT31;60625;51.212;5.952;2023-07-13T10:52:37;25.04;50.02
72591;SHT31;60625;51.212;5.952;2023-07-13T10:57:46;25.38;48.78
72591;SHT31;60625;51.212;5.952;2023-07-13T11:02:57;25.44;47.58
72591;SHT31;60625;51.212;5.952;2023-07-13T11:08:13;25.52;46.81
72591;SHT31;60625;51.212;5.952;2023-07-13T11:13:38;25.33;46.74
72591;SHT31;60625;51.212;5.952;2023-07-13T11:24:16;25.66;46.08
72591;SHT31;60625;51.212;5.952;2023-07-13T11:39:34;24.92;46.20
72591;SHT31;60625;51.212;5.952;2023-07-13T11:44:41;24.69;47.24
72591;SHT31;60625;51.212;5.952;2023-07-13T11:49:49;24.65;47.18
72591;SHT31;60625;51.212;5.952;2023-07-13T11:54:56;24.80;46.49
72591;SHT31;60625;51.212;5.952;2023-07-13T11:59:57;25.13;44.74
72591;SHT31;60625;51.212;5.952;2023-07-13T12:05:08;25.13;44.81
72591;SHT31;60625;51.212;5.952;2023-07-13T12:10:29;25.14;45.43
72591;SHT31;60625;51.212;5.952;2023-07-13T12:15:40;25.05;45.43
72591;SHT31;60625;51.212;5.952;2023-07-13T12:20:44;24.85;45.91
72591;SHT31;60625;51.212;5.952;2023-07-13T12:25:46;24.60;49.71
72591;SHT31;60625;51.212;5.952;2023-07-13T12:30:48;24.19;53.94
72591;SHT31;60625;51.212;5.952;2023-07-13T12:35:50;23.98;54.66
72591;SHT31;60625;51.212;5.952;2023-07-13T12:40:55;23.96;54.64
72591;SHT31;60625;51.212;5.952;2023-07-13T12:51:16;24.33;53.12
72591;SHT31;60625;51.212;5.952;2023-07-13T12:56:23;24.50;51.62
72591;SHT31;60625;51.212;5.952;2023-07-13T13:01:28;24.46;51.73
72591;SHT31;60625;51.212;5.952;2023-07-13T13:06:33;24.47;51.41
72591;SHT31;60625;51.212;5.952;2023-07-13T13:11:36;24.64;49.61
72591;SHT31;60625;51.212;5.952;2023-07-13T13:16:54;24.52;49.12
72591;SHT31;60625;51.212;5.952;2023-07-13T13:21:55;24.48;49.75
72591;SHT31;60625;51.212;5.952;2023-07-13T13:26:57;24.45;49.99
72591;SHT31;60625;51.212;5.952;2023-07-13T13:31:58;24.37;51.74
72591;SHT31;60625;51.212;5.952;2023-07-13T13:36:59;24.16;51.56
72591;SHT31;60625;51.212;5.952;2023-07-13T13:42:00;24.09;51.56
72591;SHT31;60625;51.212;5.952;2023-07-13T13:47:00;24.04;51.69
72591;SHT31;60625;51.212;5.952;2023-07-13T13:52:02;23.89;52.13
72591;SHT31;60625;51.212;5.952;2023-07-13T13:57:03;23.72;52.12
72591;SHT31;60625;51.212;5.952;2023-07-13T14:02:14;23.51;52.67
72591;SHT31;60625;51.212;5.952;2023-07-13T14:07:27;23.25;53.23
72591;SHT31;60625;51.212;5.952;2023-07-13T14:12:27;23.16;53.12
72591;SHT31;60625;51.212;5.952;2023-07-13T14:17:29;23.05;53.29
72591;SHT31;60625;51.212;5.952;2023-07-13T14:22:31;23.04;53.60
72591;SHT31;60625;51.212;5.952;2023-07-13T14:27:31;22.93;54.53
72591;SHT31;60625;51.212;5.952;2023-07-13T14:32:32;22.58;54.67
72591;SHT31;60625;51.212;5.952;2023-07-13T14:37:33;22.11;55.86
72591;SHT31;60625;51.212;5.952;2023-07-13T14:42:34;21.78;57.06
72591;SHT31;60625;51.212;5.952;2023-07-13T14:47:34;21.70;57.06
72591;SHT31;60625;51.212;5.952;2023-07-13T14:52:35;21.55;56.72
72591;SHT31;60625;51.212;5.952;2023-07-13T14:57:35;21.48;56.90
72591;SHT31;60625;51.212;5.952;2023-07-13T15:02:36;21.57;57.11
72591;SHT31;60625;51.212;5.952;2023-07-13T15:07:38;21.58;56.43
72591;SHT31;60625;51.212;5.952;2023-07-13T15:12:39;21.56;56.54
72591;SHT31;60625;51.212;5.952;2023-07-13T15:17:43;21.58;56.45
72591;SHT31;60625;51.212;5.952;2023-07-13T15:22:46;21.68;55.80
72591;SHT31;60625;51.212;5.952;2023-07-13T15:27:48;21.78;55.35
72591;SHT31;60625;51.212;5.952;2023-07-13T15:32:49;21.94;54.59
72591;SHT31;60625;51.212;5.952;2023-07-13T15:37:50;22.01;54.20
72591;SHT31;60625;51.212;5.952;2023-07-13T15:42:51;22.01;54.24
72591;SHT31;60625;51.212;5.952;2023-07-13T15:47:52;22.07;53.94
72591;SHT31;60625;51.212;5.952;2023-07-13T15:52:53;22.17;52.94
72591;SHT31;60625;51.212;5.952;2023-07-13T15:57:55;22.36;52.60
72591;SHT31;60625;51.212;5.952;2023-07-13T16:02:56;22.47;51.93
72591;SHT31;60625;51.212;5.952;2023-07-13T16:07:57;22.45;51.35
72591;SHT31;60625;51.212;5.952;2023-07-13T16:12:58;22.54;51.31
72591;SHT31;60625;51.212;5.952;2023-07-13T16:17:59;22.72;51.27
72591;SHT31;60625;51.212;5.952;2023-07-13T16:22:59;22.94;50.71
72591;SHT31;60625;51.212;5.952;2023-07-13T16:28:03;23.11;50.25
72591;SHT31;60625;51.212;5.952;2023-07-13T16:33:05;23.20;50.15
72591;SHT31;60625;51.212;5.952;2023-07-13T16:38:18;23.29;50.26
72591;SHT31;60625;51.212;5.952;2023-07-13T16:43:21;23.33;49.81
72591;SHT31;60625;51.212;5.952;2023-07-13T16:48:22;23.35;49.58
72591;SHT31;60625;51.212;5.952;2023-07-13T16:53:27;23.38;49.14
72591;SHT31;60625;51.212;5.952;2023-07-13T16:58:32;23.37;49.54
72591;SHT31;60625;51.212;5.952;2023-07-13T17:03:34;23.38;49.77
72591;SHT31;60625;51.212;5.952;2023-07-13T17:08:35;23.27;49.90
72591;SHT31;60625;51.212;5.952;2023-07-13T17:13:35;23.17;50.49
72591;SHT31;60625;51.212;5.952;2023-07-13T17:18:36;23.18;50.62
72591;SHT31;60625;51.212;5.952;2023-07-13T17:23:36;23.17;50.97
72591;SHT31;60625;51.212;5.952;2023-07-13T17:28:38;23.16;51.12
72591;SHT31;60625;51.212;5.952;2023-07-13T17:33:39;23.10;51.23
72591;SHT31;60625;51.212;5.952;2023-07-13T17:38:42;23.01;51.77
72591;SHT31;60625;51.212;5.952;2023-07-13T17:43:46;22.90;52.10
72591;SHT31;60625;51.212;5.952;2023-07-13T17:48:47;22.76;52.64
72591;SHT31;60625;51.212;5.952;2023-07-13T17:53:50;22.71;53.08
72591;SHT31;60625;51.212;5.952;2023-07-13T17:58:51;22.61;53.29
72591;SHT31;60625;51.212;5.952;2023-07-13T18:03:51;22.51;53.59
72591;SHT31;60625;51.212;5.952;2023-07-13T18:08:58;22.36;53.62
72591;SHT31;60625;51.212;5.952;2023-07-13T18:14:00;22.27;53.54
72591;SHT31;60625;51.212;5.952;2023-07-13T18:19:01;22.10;53.31
72591;SHT31;60625;51.212;5.952;2023-07-13T18:24:04;21.93;52.25
72591;SHT31;60625;51.212;5.952;2023-07-13T18:29:12;21.80;52.03
72591;SHT31;60625;51.212;5.952;2023-07-13T18:34:13;21.76;52.22
72591;SHT31;60625;51.212;5.952;2023-07-13T18:39:15;21.71;52.08
72591;SHT31;60625;51.212;5.952;2023-07-13T18:44:15;21.62;52.08
72591;SHT31;60625;51.212;5.952;2023-07-13T18:49:16;21.52;52.42
72591;SHT31;60625;51.212;5.952;2023-07-13T18:54:17;21.41;52.67
72591;SHT31;60625;51.212;5.952;2023-07-13T18:59:17;21.31;53.18
72591;SHT31;60625;51.212;5.952;2023-07-13T19:04:29;21.25;53.69
72591;SHT31;60625;51.212;5.952;2023-07-13T19:09:31;21.28;53.95
72591;SHT31;60625;51.212;5.952;2023-07-13T19:14:31;21.30;54.47
72591;SHT31;60625;51.212;5.952;2023-07-13T19:19:32;21.25;54.49
72591;SHT31;60625;51.212;5.952;2023-07-13T19:24:33;21.16;55.19
72591;SHT31;60625;51.212;5.952;2023-07-13T19:29:33;21.06;56.37
72591;SHT31;60625;51.212;5.952;2023-07-13T19:34:36;20.96;57.72
72591;SHT31;60625;51.212;5.952;2023-07-13T19:39:38;20.78;58.67
72591;SHT31;60625;51.212;5.952;2023-07-13T19:44:40;20.63;58.75
72591;SHT31;60625;51.212;5.952;2023-07-13T19:49:42;20.47;58.95
72591;SHT31;60625;51.212;5.952;2023-07-13T19:54:43;20.27;59.28
72591;SHT31;60625;51.212;5.952;2023-07-13T19:59:45;20.16;59.78
72591;SHT31;60625;51.212;5.952;2023-07-13T20:04:51;20.04;60.22
72591;SHT31;60625;51.212;5.952;2023-07-13T20:09:53;19.89;60.88
72591;SHT31;60625;51.212;5.952;2023-07-13T20:14:54;19.73;61.58
72591;SHT31;60625;51.212;5.952;2023-07-13T20:19:55;19.62;62.42
72591;SHT31;60625;51.212;5.952;2023-07-13T20:24:56;19.50;63.11
72591;SHT31;60625;51.212;5.952;2023-07-13T20:29:57;19.44;63.47
72591;SHT31;60625;51.212;5.952;2023-07-13T20:34:59;19.39;63.69
72591;SHT31;60625;51.212;5.952;2023-07-13T20:40:00;19.28;63.64
72591;SHT31;60625;51.212;5.952;2023-07-13T20:45:00;19.18;63.63
72591;SHT31;60625;51.212;5.952;2023-07-13T20:50:01;19.12;63.55
72591;SHT31;60625;51.212;5.952;2023-07-13T20:55:08;19.06;63.74
72591;SHT31;60625;51.212;5.952;2023-07-13T21:00:14;18.93;64.35
72591;SHT31;60625;51.212;5.952;2023-07-13T21:05:27;18.84;64.68
72591;SHT31;60625;51.212;5.952;2023-07-13T21:10:35;18.79;65.04
72591;SHT31;60625;51.212;5.952;2023-07-13T21:15:36;18.79;65.43
72591;SHT31;60625;51.212;5.952;2023-07-13T21:20:39;18.82;65.70
72591;SHT31;60625;51.212;5.952;2023-07-13T21:25:43;18.83;65.68
72591;SHT31;60625;51.212;5.952;2023-07-13T21:30:43;18.75;66.32
72591;SHT31;60625;51.212;5.952;2023-07-13T21:35:44;18.72;66.52
72591;SHT31;60625;51.212;5.952;2023-07-13T21:40:46;18.72;66.49
72591;SHT31;60625;51.212;5.952;2023-07-13T21:45:50;18.64;67.05
72591;SHT31;60625;51.212;5.952;2023-07-13T21:50:53;18.54;67.32
72591;SHT31;60625;51.212;5.952;2023-07-13T21:55:56;18.46;67.73
72591;SHT31;60625;51.212;5.952;2023-07-13T22:01:00;18.44;67.71
72591;SHT31;60625;51.212;5.952;2023-07-13T22:06:04;18.34;68.00
72591;SHT31;60625;51.212;5.952;2023-07-13T22:11:09;18.29;68.28
72591;SHT31;60625;51.212;5.952;2023-07-13T22:16:17;18.21;68.58
72591;SHT31;60625;51.212;5.952;2023-07-13T22:21:25;18.11;69.02
72591;SHT31;60625;51.212;5.952;2023-07-13T22:26:32;18.07;69.21
72591;SHT31;60625;51.212;5.952;2023-07-13T22:31:34;18.04;69.17
72591;SHT31;60625;51.212;5.952;2023-07-13T22:36:34;18.00;69.47
72591;SHT31;60625;51.212;5.952;2023-07-13T22:41:35;18.00;69.58
72591;SHT31;60625;51.212;5.952;2023-07-13T22:46:35;18.02;69.08
72591;SHT31;60625;51.212;5.952;2023-07-13T22:51:36;17.99;69.06
72591;SHT31;60625;51.212;5.952;2023-07-13T22:56:36;17.93;69.43
72591;SHT31;60625;51.212;5.952;2023-07-13T23:01:37;17.82;69.72
72591;SHT31;60625;51.212;5.952;2023-07-13T23:06:39;17.68;69.94
72591;SHT31;60625;51.212;5.952;2023-07-13T23:11:41;17.50;70.33
72591;SHT31;60625;51.212;5.952;2023-07-13T23:16:41;17.40;70.69
72591;SHT31;60625;51.212;5.952;2023-07-13T23:21:43;17.29;70.95
72591;SHT31;60625;51.212;5.952;2023-07-13T23:26:50;17.25;71.12
72591;SHT31;60625;51.212;5.952;2023-07-13T23:31:51;17.30;71.06
72591;SHT31;60625;51.212;5.952;2023-07-13T23:36:52;17.33;71.21
72591;SHT31;60625;51.212;5.952;2023-07-13T23:41:53;17.27;71.68
72591;SHT31;60625;51.212;5.952;2023-07-13T23:46:53;17.20;72.05
72591;SHT31;60625;51.212;5.952;2023-07-13T23:51:57;17.09;72.22
72591;SHT31;60625;51.212;5.952;2023-07-13T23:57:00;16.92;72.62
